sensor_id;sensor_type;location;lat;lon;timestamp;P1;durP1;ratioP1;P2;durP2;ratioP2
13566;SDS011;6855;48.112;11.298;2022-12-19T00:00:06;37.90;;;14.73;;
13566;SDS011;6855;48.112;11.298;2022-12-19T00:02:35;35.22;;;14.95;;
13566;SDS011;6855;48.112;11.298;2022-12-19T00:05:02;34.35;;;14.73;;
13566;SDS011;6855;48.112;11.298;2022-12-19T00:07:30;29.00;;;12.55;;
13566;SDS011;6855;48.112;11.298;2022-12-19T00:09:57;36.60;;;13.38;;
13566;SDS011;6855;48.112;11.298;2022-12-19T00:12:24;40.70;;;15.05;;
13566;SDS011;6855;48.112;11.298;2022-12-19T00:14:51;35.22;;;13.82;;
13566;SDS011;6855;48.112;11.298;2022-12-19T00:17:18;27.80;;;11.25;;
13566;SDS011;6855;48.112;11.298;2022-12-19T00:19:47;32.83;;;13.98;;
13566;SDS011;6855;48.112;11.298;2022-12-19T00:22:20;30.58;;;13.70;;
13566;SDS011;6855;48.112;11.298;2022-12-19T00:24:47;33.65;;;13.65;;
13566;SDS011;6855;48.112;11.298;2022-12-19T00:27:14;38.95;;;13.48;;
13566;SDS011;6855;48.112;11.298;2022-12-19T00:29:41;34.42;;;13.55;;
13566;SDS011;6855;48.112;11.298;2022-12-19T00:32:09;31.58;;;13.35;;
13566;SDS011;6855;48.112;11.298;2022-12-19T00:34:36;41.20;;;14.55;;
13566;SDS011;6855;48.112;11.298;2022-12-19T00:37:04;31.52;;;13.35;;
13566;SDS011;6855;48.112;11.298;2022-12-19T00:39:31;36.97;;;14.02;;
13566;SDS011;6855;48.112;11.298;2022-12-19T00:41:59;35.78;;;14.30;;
13566;SDS011;6855;48.112;11.298;2022-12-19T00:44:26;33.88;;;12.98;;
13566;SDS011;6855;48.112;11.298;2022-12-19T00:46:53;37.60;;;14.15;;
13566;SDS011;6855;48.112;11.298;2022-12-19T00:49:20;39.45;;;14.88;;
13566;SDS011;6855;48.112;11.298;2022-12-19T00:51:47;34.53;;;13.77;;
13566;SDS011;6855;48.112;11.298;2022-12-19T00:54:16;34.67;;;13.63;;
13566;SDS011;6855;48.112;11.298;2022-12-19T00:56:43;36.35;;;15.20;;
13566;SDS011;6855;48.112;11.298;2022-12-19T00:59:10;39.53;;;15.38;;
13566;SDS011;6855;48.112;11.298;2022-12-19T01:01:38;32.35;;;13.65;;
13566;SDS011;6855;48.112;11.298;2022-12-19T01:04:06;36.63;;;14.75;;
13566;SDS011;6855;48.112;11.298;2022-12-19T01:06:34;38.58;;;15.52;;
13566;SDS011;6855;48.112;11.298;2022-12-19T01:09:01;34.65;;;14.20;;
13566;SDS011;6855;48.112;11.298;2022-12-19T01:11:29;31.17;;;13.20;;
13566;SDS011;6855;48.112;11.298;2022-12-19T01:14:14;39.90;;;14.95;;
13566;SDS011;6855;48.112;11.298;2022-12-19T01:16:42;46.35;;;15.48;;
13566;SDS011;6855;48.112;11.298;2022-12-19T01:19:09;39.40;;;14.57;;
13566;SDS011;6855;48.112;11.298;2022-12-19T01:21:36;41.08;;;14.40;;
13566;SDS011;6855;48.112;11.298;2022-12-19T01:24:03;42.03;;;14.60;;
13566;SDS011;6855;48.112;11.298;2022-12-19T01:26:32;38.45;;;14.63;;
13566;SDS011;6855;48.112;11.298;2022-12-19T01:28:59;37.38;;;15.20;;
13566;SDS011;6855;48.112;11.298;2022-12-19T01:31:26;42.05;;;15.20;;
13566;SDS011;6855;48.112;11.298;2022-12-19T01:33:54;41.25;;;14.35;;
13566;SDS011;6855;48.112;11.298;2022-12-19T01:36:21;37.78;;;14.50;;
13566;SDS011;6855;48.112;11.298;2022-12-19T01:38:48;36.63;;;15.35;;
13566;SDS011;6855;48.112;11.298;2022-12-19T01:41:15;40.80;;;15.55;;
13566;SDS011;6855;48.112;11.298;2022-12-19T01:43:57;38.33;;;14.70;;
13566;SDS011;6855;48.112;11.298;2022-12-19T01:46:25;46.25;;;14.85;;
13566;SDS011;6855;48.112;11.298;2022-12-19T01:48:53;42.05;;;15.05;;
13566;SDS011;6855;48.112;11.298;2022-12-19T01:51:21;46.17;;;14.73;;
13566;SDS011;6855;48.112;11.298;2022-12-19T01:53:49;43.90;;;17.00;;
13566;SDS011;6855;48.112;11.298;2022-12-19T01:56:17;42.75;;;15.30;;
13566;SDS011;6855;48.112;11.298;2022-12-19T01:58:45;38.92;;;14.98;;
13566;SDS011;6855;48.112;11.298;2022-12-19T02:01:15;42.58;;;16.48;;
13566;SDS011;6855;48.112;11.298;2022-12-19T02:03:43;44.78;;;18.02;;
13566;SDS011;6855;48.112;11.298;2022-12-19T02:06:11;37.03;;;15.85;;
13566;SDS011;6855;48.112;11.298;2022-12-19T02:08:39;51.78;;;17.23;;
13566;SDS011;6855;48.112;11.298;2022-12-19T02:11:07;42.53;;;17.52;;
13566;SDS011;6855;48.112;11.298;2022-12-19T02:13:34;39.42;;;16.77;;
13566;SDS011;6855;48.112;11.298;2022-12-19T02:16:02;41.78;;;17.75;;
13566;SDS011;6855;48.112;11.298;2022-12-19T02:18:36;44.42;;;14.77;;
13566;SDS011;6855;48.112;11.298;2022-12-19T02:21:12;38.40;;;15.75;;
13566;SDS011;6855;48.112;11.298;2022-12-19T02:26:31;40.42;;;17.73;;
13566;SDS011;6855;48.112;11.298;2022-12-19T02:29:13;40.03;;;16.35;;
13566;SDS011;6855;48.112;11.298;2022-12-19T02:31:44;33.15;;;14.77;;
13566;SDS011;6855;48.112;11.298;2022-12-19T02:34:15;38.90;;;14.95;;
13566;SDS011;6855;48.112;11.298;2022-12-19T02:36:45;49.08;;;18.63;;
13566;SDS011;6855;48.112;11.298;2022-12-19T02:39:14;63.30;;;18.73;;
13566;SDS011;6855;48.112;11.298;2022-12-19T02:41:43;45.70;;;18.45;;
13566;SDS011;6855;48.112;11.298;2022-12-19T02:44:14;49.83;;;17.00;;
13566;SDS011;6855;48.112;11.298;2022-12-19T02:46:43;51.55;;;17.98;;
13566;SDS011;6855;48.112;11.298;2022-12-19T02:49:11;50.85;;;19.35;;
13566;SDS011;6855;48.112;11.298;2022-12-19T02:51:39;46.95;;;17.13;;
13566;SDS011;6855;48.112;11.298;2022-12-19T02:54:06;47.00;;;17.58;;
13566;SDS011;6855;48.112;11.298;2022-12-19T02:56:37;47.53;;;18.63;;
13566;SDS011;6855;48.112;11.298;2022-12-19T02:59:10;50.05;;;18.20;;
13566;SDS011;6855;48.112;11.298;2022-12-19T03:01:41;57.80;;;20.75;;
13566;SDS011;6855;48.112;11.298;2022-12-19T03:04:15;50.78;;;18.52;;
13566;SDS011;6855;48.112;11.298;2022-12-19T03:06:44;50.55;;;18.00;;
13566;SDS011;6855;48.112;11.298;2022-12-19T03:09:15;52.83;;;18.58;;
13566;SDS011;6855;48.112;11.298;2022-12-19T03:11:43;58.33;;;18.52;;
13566;SDS011;6855;48.112;11.298;2022-12-19T03:14:13;45.05;;;17.10;;
13566;SDS011;6855;48.112;11.298;2022-12-19T03:16:41;43.03;;;16.77;;
13566;SDS011;6855;48.112;11.298;2022-12-19T03:19:10;42.90;;;17.00;;
13566;SDS011;6855;48.112;11.298;2022-12-19T03:21:39;47.25;;;17.58;;
13566;SDS011;6855;48.112;11.298;2022-12-19T03:24:07;54.92;;;19.10;;
13566;SDS011;6855;48.112;11.298;2022-12-19T03:26:36;51.67;;;17.23;;
13566;SDS011;6855;48.112;11.298;2022-12-19T03:29:06;42.95;;;16.90;;
13566;SDS011;6855;48.112;11.298;2022-12-19T03:31:33;46.80;;;17.95;;
13566;SDS011;6855;48.112;11.298;2022-12-19T03:34:02;53.50;;;18.50;;
13566;SDS011;6855;48.112;11.298;2022-12-19T03:36:31;39.78;;;16.90;;
13566;SDS011;6855;48.112;11.298;2022-12-19T03:39:00;43.22;;;16.85;;
13566;SDS011;6855;48.112;11.298;2022-12-19T03:41:30;44.15;;;16.20;;
13566;SDS011;6855;48.112;11.298;2022-12-19T03:44:15;36.53;;;15.23;;
13566;SDS011;6855;48.112;11.298;2022-12-19T03:46:45;44.15;;;15.98;;
13566;SDS011;6855;48.112;11.298;2022-12-19T03:49:14;45.45;;;17.33;;
13566;SDS011;6855;48.112;11.298;2022-12-19T03:51:43;33.60;;;13.43;;
13566;SDS011;6855;48.112;11.298;2022-12-19T03:54:14;49.42;;;18.63;;
13566;SDS011;6855;48.112;11.298;2022-12-19T03:56:44;44.05;;;15.50;;
13566;SDS011;6855;48.112;11.298;2022-12-19T03:59:14;41.78;;;17.33;;
13566;SDS011;6855;48.112;11.298;2022-12-19T04:01:42;37.47;;;15.07;;
13566;SDS011;6855;48.112;11.298;2022-12-19T04:04:10;42.42;;;15.43;;
13566;SDS011;6855;48.112;11.298;2022-12-19T04:06:38;38.50;;;15.80;;
13566;SDS011;6855;48.112;11.298;2022-12-19T04:09:07;40.30;;;14.38;;
13566;SDS011;6855;48.112;11.298;2022-12-19T04:11:37;42.60;;;14.57;;
13566;SDS011;6855;48.112;11.298;2022-12-19T04:14:05;37.67;;;15.20;;
13566;SDS011;6855;48.112;11.298;2022-12-19T04:16:34;38.35;;;15.30;;
13566;SDS011;6855;48.112;11.298;2022-12-19T04:19:05;41.78;;;16.27;;
13566;SDS011;6855;48.112;11.298;2022-12-19T04:21:34;32.40;;;13.43;;
13566;SDS011;6855;48.112;11.298;2022-12-19T04:24:05;46.15;;;16.33;;
13566;SDS011;6855;48.112;11.298;2022-12-19T04:26:33;46.38;;;14.75;;
13566;SDS011;6855;48.112;11.298;2022-12-19T04:29:03;40.58;;;16.17;;
13566;SDS011;6855;48.112;11.298;2022-12-19T04:31:32;33.40;;;13.93;;
13566;SDS011;6855;48.112;11.298;2022-12-19T04:34:00;45.88;;;15.32;;
13566;SDS011;6855;48.112;11.298;2022-12-19T04:36:27;36.78;;;15.20;;
13566;SDS011;6855;48.112;11.298;2022-12-19T04:38:54;36.80;;;14.27;;
13566;SDS011;6855;48.112;11.298;2022-12-19T04:41:21;40.25;;;14.98;;
13566;SDS011;6855;48.112;11.298;2022-12-19T04:43:48;39.75;;;14.65;;
13566;SDS011;6855;48.112;11.298;2022-12-19T04:46:17;42.17;;;14.25;;
13566;SDS011;6855;48.112;11.298;2022-12-19T04:48:44;32.70;;;14.55;;
13566;SDS011;6855;48.112;11.298;2022-12-19T04:51:11;43.20;;;16.08;;
13566;SDS011;6855;48.112;11.298;2022-12-19T04:53:38;39.17;;;14.77;;
13566;SDS011;6855;48.112;11.298;2022-12-19T04:56:06;35.72;;;14.00;;
13566;SDS011;6855;48.112;11.298;2022-12-19T04:58:33;38.42;;;14.02;;
13566;SDS011;6855;48.112;11.298;2022-12-19T05:01:00;39.70;;;14.77;;
13566;SDS011;6855;48.112;11.298;2022-12-19T05:03:29;38.55;;;14.55;;
13566;SDS011;6855;48.112;11.298;2022-12-19T05:06:03;35.60;;;14.25;;
13566;SDS011;6855;48.112;11.298;2022-12-19T05:08:31;35.50;;;14.00;;
13566;SDS011;6855;48.112;11.298;2022-12-19T05:10:58;34.50;;;15.25;;
13566;SDS011;6855;48.112;11.298;2022-12-19T05:13:26;32.97;;;14.40;;
13566;SDS011;6855;48.112;11.298;2022-12-19T05:15:56;36.45;;;13.93;;
13566;SDS011;6855;48.112;11.298;2022-12-19T05:18:23;36.92;;;15.10;;
13566;SDS011;6855;48.112;11.298;2022-12-19T05:20:52;43.38;;;14.90;;
13566;SDS011;6855;48.112;11.298;2022-12-19T05:23:20;43.30;;;16.42;;
13566;SDS011;6855;48.112;11.298;2022-12-19T05:25:47;36.10;;;14.15;;
13566;SDS011;6855;48.112;11.298;2022-12-19T05:28:15;32.33;;;13.88;;
13566;SDS011;6855;48.112;11.298;2022-12-19T05:30:43;36.55;;;15.23;;
13566;SDS011;6855;48.112;11.298;2022-12-19T05:33:10;37.08;;;15.20;;
13566;SDS011;6855;48.112;11.298;2022-12-19T05:35:38;36.28;;;16.00;;
13566;SDS011;6855;48.112;11.298;2022-12-19T05:38:06;36.75;;;16.08;;
13566;SDS011;6855;48.112;11.298;2022-12-19T05:40:34;36.83;;;16.08;;
13566;SDS011;6855;48.112;11.298;2022-12-19T05:43:01;39.38;;;14.77;;
13566;SDS011;6855;48.112;11.298;2022-12-19T05:45:28;40.33;;;15.18;;
13566;SDS011;6855;48.112;11.298;2022-12-19T05:47:55;38.55;;;15.38;;
13566;SDS011;6855;48.112;11.298;2022-12-19T05:50:22;36.75;;;14.57;;
13566;SDS011;6855;48.112;11.298;2022-12-19T05:52:50;32.58;;;14.75;;
13566;SDS011;6855;48.112;11.298;2022-12-19T05:55:18;33.42;;;13.95;;
13566;SDS011;6855;48.112;11.298;2022-12-19T05:57:45;35.75;;;14.77;;
13566;SDS011;6855;48.112;11.298;2022-12-19T06:00:13;41.00;;;14.80;;
13566;SDS011;6855;48.112;11.298;2022-12-19T06:02:40;42.63;;;15.02;;
13566;SDS011;6855;48.112;11.298;2022-12-19T06:05:08;45.17;;;18.05;;
13566;SDS011;6855;48.112;11.298;2022-12-19T06:07:35;41.03;;;17.80;;
13566;SDS011;6855;48.112;11.298;2022-12-19T06:10:03;33.85;;;15.27;;
13566;SDS011;6855;48.112;11.298;2022-12-19T06:12:31;33.05;;;14.50;;
13566;SDS011;6855;48.112;11.298;2022-12-19T06:14:58;36.05;;;15.00;;
13566;SDS011;6855;48.112;11.298;2022-12-19T06:17:26;35.55;;;13.05;;
13566;SDS011;6855;48.112;11.298;2022-12-19T06:19:53;33.85;;;13.80;;
13566;SDS011;6855;48.112;11.298;2022-12-19T06:22:20;33.55;;;14.63;;
13566;SDS011;6855;48.112;11.298;2022-12-19T06:24:48;35.42;;;14.35;;
13566;SDS011;6855;48.112;11.298;2022-12-19T06:27:15;38.88;;;12.80;;
13566;SDS011;6855;48.112;11.298;2022-12-19T06:29:43;33.05;;;13.70;;
13566;SDS011;6855;48.112;11.298;2022-12-19T06:32:11;32.42;;;14.18;;
13566;SDS011;6855;48.112;11.298;2022-12-19T06:34:38;36.50;;;14.93;;
13566;SDS011;6855;48.112;11.298;2022-12-19T06:37:05;37.65;;;15.43;;
13566;SDS011;6855;48.112;11.298;2022-12-19T06:39:32;33.25;;;13.32;;
13566;SDS011;6855;48.112;11.298;2022-12-19T06:41:59;31.58;;;13.60;;
13566;SDS011;6855;48.112;11.298;2022-12-19T06:44:45;37.03;;;14.55;;
13566;SDS011;6855;48.112;11.298;2022-12-19T06:47:13;27.35;;;13.10;;
13566;SDS011;6855;48.112;11.298;2022-12-19T06:49:40;31.50;;;14.43;;
13566;SDS011;6855;48.112;11.298;2022-12-19T06:52:07;28.20;;;12.25;;
13566;SDS011;6855;48.112;11.298;2022-12-19T06:54:34;34.25;;;13.93;;
13566;SDS011;6855;48.112;11.298;2022-12-19T06:57:01;36.77;;;14.53;;
13566;SDS011;6855;48.112;11.298;2022-12-19T06:59:28;31.80;;;14.32;;
13566;SDS011;6855;48.112;11.298;2022-12-19T07:01:58;36.80;;;14.80;;
13566;SDS011;6855;48.112;11.298;2022-12-19T07:04:27;36.13;;;14.38;;
13566;SDS011;6855;48.112;11.298;2022-12-19T07:06:55;32.15;;;13.38;;
13566;SDS011;6855;48.112;11.298;2022-12-19T07:09:23;35.40;;;14.23;;
13566;SDS011;6855;48.112;11.298;2022-12-19T07:11:51;35.58;;;12.43;;
13566;SDS011;6855;48.112;11.298;2022-12-19T07:14:18;31.90;;;13.95;;
13566;SDS011;6855;48.112;11.298;2022-12-19T07:16:46;35.50;;;13.55;;
13566;SDS011;6855;48.112;11.298;2022-12-19T07:19:15;33.25;;;14.23;;
13566;SDS011;6855;48.112;11.298;2022-12-19T07:21:42;38.72;;;14.85;;
13566;SDS011;6855;48.112;11.298;2022-12-19T07:24:10;38.63;;;16.08;;
13566;SDS011;6855;48.112;11.298;2022-12-19T07:26:38;36.47;;;14.45;;
13566;SDS011;6855;48.112;11.298;2022-12-19T07:29:06;32.35;;;14.15;;
13566;SDS011;6855;48.112;11.298;2022-12-19T07:31:34;33.13;;;13.77;;
13566;SDS011;6855;48.112;11.298;2022-12-19T07:34:01;33.60;;;13.87;;
13566;SDS011;6855;48.112;11.298;2022-12-19T07:36:29;34.42;;;14.90;;
13566;SDS011;6855;48.112;11.298;2022-12-19T07:38:56;30.87;;;14.23;;
13566;SDS011;6855;48.112;11.298;2022-12-19T07:41:24;33.20;;;13.80;;
13566;SDS011;6855;48.112;11.298;2022-12-19T07:43:51;37.35;;;14.88;;
13566;SDS011;6855;48.112;11.298;2022-12-19T07:46:18;38.67;;;15.00;;
13566;SDS011;6855;48.112;11.298;2022-12-19T07:48:46;33.50;;;13.13;;
13566;SDS011;6855;48.112;11.298;2022-12-19T07:51:14;30.50;;;13.50;;
13566;SDS011;6855;48.112;11.298;2022-12-19T07:53:43;32.33;;;13.40;;
13566;SDS011;6855;48.112;11.298;2022-12-19T07:56:10;31.83;;;13.63;;
13566;SDS011;6855;48.112;11.298;2022-12-19T07:58:37;31.10;;;13.97;;
13566;SDS011;6855;48.112;11.298;2022-12-19T08:01:04;29.90;;;12.80;;
13566;SDS011;6855;48.112;11.298;2022-12-19T08:03:31;35.80;;;15.63;;
13566;SDS011;6855;48.112;11.298;2022-12-19T08:06:00;38.80;;;16.93;;
13566;SDS011;6855;48.112;11.298;2022-12-19T08:08:27;38.50;;;19.48;;
13566;SDS011;6855;48.112;11.298;2022-12-19T08:11:02;44.80;;;17.23;;
13566;SDS011;6855;48.112;11.298;2022-12-19T08:13:31;30.67;;;15.20;;
13566;SDS011;6855;48.112;11.298;2022-12-19T08:15:58;37.00;;;16.47;;
13566;SDS011;6855;48.112;11.298;2022-12-19T08:18:25;30.97;;;14.63;;
13566;SDS011;6855;48.112;11.298;2022-12-19T08:20:53;33.93;;;15.07;;
13566;SDS011;6855;48.112;11.298;2022-12-19T08:23:20;29.73;;;12.90;;
13566;SDS011;6855;48.112;11.298;2022-12-19T08:25:47;28.87;;;14.50;;
13566;SDS011;6855;48.112;11.298;2022-12-19T08:28:17;27.20;;;13.87;;
13566;SDS011;6855;48.112;11.298;2022-12-19T08:30:44;31.20;;;13.77;;
13566;SDS011;6855;48.112;11.298;2022-12-19T08:33:11;35.37;;;15.60;;
13566;SDS011;6855;48.112;11.298;2022-12-19T08:35:39;40.60;;;15.63;;
13566;SDS011;6855;48.112;11.298;2022-12-19T08:38:06;38.90;;;15.60;;
13566;SDS011;6855;48.112;11.298;2022-12-19T08:40:34;38.70;;;15.93;;
13566;SDS011;6855;48.112;11.298;2022-12-19T08:43:01;33.13;;;15.33;;
13566;SDS011;6855;48.112;11.298;2022-12-19T08:45:29;35.57;;;15.60;;
13566;SDS011;6855;48.112;11.298;2022-12-19T08:47:56;32.43;;;15.70;;
13566;SDS011;6855;48.112;11.298;2022-12-19T08:50:24;32.33;;;15.37;;
13566;SDS011;6855;48.112;11.298;2022-12-19T08:52:51;40.93;;;17.00;;
13566;SDS011;6855;48.112;11.298;2022-12-19T08:55:18;42.67;;;17.27;;
13566;SDS011;6855;48.112;11.298;2022-12-19T08:57:45;42.73;;;17.20;;
13566;SDS011;6855;48.112;11.298;2022-12-19T09:00:13;32.93;;;16.57;;
13566;SDS011;6855;48.112;11.298;2022-12-19T09:02:42;44.50;;;18.03;;
13566;SDS011;6855;48.112;11.298;2022-12-19T09:05:09;44.87;;;18.50;;
13566;SDS011;6855;48.112;11.298;2022-12-19T09:07:36;39.47;;;18.97;;
13566;SDS011;6855;48.112;11.298;2022-12-19T09:10:05;47.50;;;20.47;;
13566;SDS011;6855;48.112;11.298;2022-12-19T09:12:32;40.20;;;19.83;;
13566;SDS011;6855;48.112;11.298;2022-12-19T09:14:59;39.30;;;18.53;;
13566;SDS011;6855;48.112;11.298;2022-12-19T09:17:27;43.00;;;19.20;;
13566;SDS011;6855;48.112;11.298;2022-12-19T09:19:55;42.37;;;18.30;;
13566;SDS011;6855;48.112;11.298;2022-12-19T09:22:22;41.67;;;18.30;;
13566;SDS011;6855;48.112;11.298;2022-12-19T09:24:50;40.47;;;19.80;;
13566;SDS011;6855;48.112;11.298;2022-12-19T09:27:17;44.60;;;18.87;;
13566;SDS011;6855;48.112;11.298;2022-12-19T09:29:44;49.17;;;21.10;;
13566;SDS011;6855;48.112;11.298;2022-12-19T09:32:11;38.70;;;18.67;;
13566;SDS011;6855;48.112;11.298;2022-12-19T09:34:38;43.00;;;20.60;;
13566;SDS011;6855;48.112;11.298;2022-12-19T09:37:07;41.77;;;20.90;;
13566;SDS011;6855;48.112;11.298;2022-12-19T09:39:35;44.90;;;19.83;;
13566;SDS011;6855;48.112;11.298;2022-12-19T09:44:54;47.63;;;17.53;;
13566;SDS011;6855;48.112;11.298;2022-12-19T09:47:26;34.03;;;17.40;;
13566;SDS011;6855;48.112;11.298;2022-12-19T09:49:53;36.60;;;16.60;;
13566;SDS011;6855;48.112;11.298;2022-12-19T09:52:27;34.80;;;15.50;;
13566;SDS011;6855;48.112;11.298;2022-12-19T09:55:00;35.13;;;15.63;;
13566;SDS011;6855;48.112;11.298;2022-12-19T09:57:31;42.13;;;16.73;;
13566;SDS011;6855;48.112;11.298;2022-12-19T10:00:01;32.27;;;16.00;;
13566;SDS011;6855;48.112;11.298;2022-12-19T10:02:31;33.93;;;15.63;;
13566;SDS011;6855;48.112;11.298;2022-12-19T10:05:04;37.70;;;15.57;;
13566;SDS011;6855;48.112;11.298;2022-12-19T10:07:37;38.93;;;15.93;;
13566;SDS011;6855;48.112;11.298;2022-12-19T10:10:04;39.00;;;14.47;;
13566;SDS011;6855;48.112;11.298;2022-12-19T10:12:40;28.67;;;13.93;;
13566;SDS011;6855;48.112;11.298;2022-12-19T10:15:11;32.10;;;14.83;;
13566;SDS011;6855;48.112;11.298;2022-12-19T10:17:48;34.93;;;15.03;;
13566;SDS011;6855;48.112;11.298;2022-12-19T10:20:22;34.90;;;15.90;;
13566;SDS011;6855;48.112;11.298;2022-12-19T10:22:55;42.70;;;18.43;;
13566;SDS011;6855;48.112;11.298;2022-12-19T10:25:27;35.10;;;17.57;;
13566;SDS011;6855;48.112;11.298;2022-12-19T10:27:57;38.90;;;19.60;;
13566;SDS011;6855;48.112;11.298;2022-12-19T10:30:24;37.97;;;18.20;;
13566;SDS011;6855;48.112;11.298;2022-12-19T10:32:58;31.47;;;15.37;;
13566;SDS011;6855;48.112;11.298;2022-12-19T10:35:29;29.10;;;14.70;;
13566;SDS011;6855;48.112;11.298;2022-12-19T10:38:03;34.70;;;14.43;;
13566;SDS011;6855;48.112;11.298;2022-12-19T10:40:35;27.87;;;13.50;;
13566;SDS011;6855;48.112;11.298;2022-12-19T10:43:05;33.10;;;15.33;;
13566;SDS011;6855;48.112;11.298;2022-12-19T10:45:38;35.20;;;15.23;;
13566;SDS011;6855;48.112;11.298;2022-12-19T10:48:08;36.03;;;15.93;;
13566;SDS011;6855;48.112;11.298;2022-12-19T10:50:37;33.37;;;16.50;;
13566;SDS011;6855;48.112;11.298;2022-12-19T10:53:06;30.10;;;15.77;;
13566;SDS011;6855;48.112;11.298;2022-12-19T10:55:40;33.27;;;15.50;;
13566;SDS011;6855;48.112;11.298;2022-12-19T10:58:16;29.90;;;15.60;;
13566;SDS011;6855;48.112;11.298;2022-12-19T11:00:58;32.20;;;13.67;;
13566;SDS011;6855;48.112;11.298;2022-12-19T11:03:26;27.83;;;13.07;;
13566;SDS011;6855;48.112;11.298;2022-12-19T11:05:54;24.13;;;13.33;;
13566;SDS011;6855;48.112;11.298;2022-12-19T11:08:24;26.80;;;13.40;;
13566;SDS011;6855;48.112;11.298;2022-12-19T11:10:53;27.67;;;13.83;;
13566;SDS011;6855;48.112;11.298;2022-12-19T11:13:22;23.13;;;12.13;;
13566;SDS011;6855;48.112;11.298;2022-12-19T11:15:50;21.60;;;12.27;;
13566;SDS011;6855;48.112;11.298;2022-12-19T11:18:20;26.53;;;12.30;;
13566;SDS011;6855;48.112;11.298;2022-12-19T11:20:54;24.43;;;12.10;;
13566;SDS011;6855;48.112;11.298;2022-12-19T11:23:22;23.03;;;12.00;;
13566;SDS011;6855;48.112;11.298;2022-12-19T11:25:56;23.70;;;12.20;;
13566;SDS011;6855;48.112;11.298;2022-12-19T11:28:25;20.40;;;10.70;;
13566;SDS011;6855;48.112;11.298;2022-12-19T11:30:56;22.60;;;11.80;;
13566;SDS011;6855;48.112;11.298;2022-12-19T11:33:25;23.07;;;11.83;;
13566;SDS011;6855;48.112;11.298;2022-12-19T11:35:52;27.87;;;14.70;;
13566;SDS011;6855;48.112;11.298;2022-12-19T11:38:25;34.00;;;13.93;;
13566;SDS011;6855;48.112;11.298;2022-12-19T11:40:56;24.80;;;12.80;;
13566;SDS011;6855;48.112;11.298;2022-12-19T11:43:25;28.83;;;13.43;;
13566;SDS011;6855;48.112;11.298;2022-12-19T11:45:55;27.00;;;12.30;;
13566;SDS011;6855;48.112;11.298;2022-12-19T11:48:27;30.20;;;14.27;;
13566;SDS011;6855;48.112;11.298;2022-12-19T11:50:58;34.33;;;17.37;;
13566;SDS011;6855;48.112;11.298;2022-12-19T11:53:28;32.53;;;16.33;;
13566;SDS011;6855;48.112;11.298;2022-12-19T11:55:59;30.97;;;16.97;;
13566;SDS011;6855;48.112;11.298;2022-12-19T11:58:27;39.57;;;18.57;;
13566;SDS011;6855;48.112;11.298;2022-12-19T12:00:57;37.57;;;16.20;;
13566;SDS011;6855;48.112;11.298;2022-12-19T12:03:31;34.07;;;17.60;;
13566;SDS011;6855;48.112;11.298;2022-12-19T12:06:03;32.13;;;15.13;;
13566;SDS011;6855;48.112;11.298;2022-12-19T12:08:42;31.87;;;16.20;;
13566;SDS011;6855;48.112;11.298;2022-12-19T12:11:18;43.13;;;16.40;;
13566;SDS011;6855;48.112;11.298;2022-12-19T12:13:51;33.93;;;17.13;;
13566;SDS011;6855;48.112;11.298;2022-12-19T12:16:20;31.43;;;15.80;;
13566;SDS011;6855;48.112;11.298;2022-12-19T12:18:53;30.37;;;15.40;;
13566;SDS011;6855;48.112;11.298;2022-12-19T12:21:22;32.30;;;16.90;;
13566;SDS011;6855;48.112;11.298;2022-12-19T12:23:57;39.27;;;17.13;;
13566;SDS011;6855;48.112;11.298;2022-12-19T12:26:29;32.80;;;17.30;;
13566;SDS011;6855;48.112;11.298;2022-12-19T12:29:05;34.40;;;17.70;;
13566;SDS011;6855;48.112;11.298;2022-12-19T12:31:40;31.83;;;17.17;;
13566;SDS011;6855;48.112;11.298;2022-12-19T12:37:01;33.63;;;16.90;;
13566;SDS011;6855;48.112;11.298;2022-12-19T12:39:34;31.80;;;16.50;;
13566;SDS011;6855;48.112;11.298;2022-12-19T12:42:08;44.93;;;18.73;;
13566;SDS011;6855;48.112;11.298;2022-12-19T12:44:39;43.10;;;20.37;;
13566;SDS011;6855;48.112;11.298;2022-12-19T12:47:11;37.33;;;19.57;;
13566;SDS011;6855;48.112;11.298;2022-12-19T12:49:41;38.87;;;20.70;;
13566;SDS011;6855;48.112;11.298;2022-12-19T12:52:10;45.43;;;21.27;;
13566;SDS011;6855;48.112;11.298;2022-12-19T12:54:40;39.83;;;17.40;;
13566;SDS011;6855;48.112;11.298;2022-12-19T12:57:15;32.63;;;16.03;;
13566;SDS011;6855;48.112;11.298;2022-12-19T12:59:43;28.50;;;14.97;;
13566;SDS011;6855;48.112;11.298;2022-12-19T13:02:13;30.30;;;14.47;;
13566;SDS011;6855;48.112;11.298;2022-12-19T13:04:42;28.33;;;14.63;;
13566;SDS011;6855;48.112;11.298;2022-12-19T13:07:24;24.27;;;14.07;;
13566;SDS011;6855;48.112;11.298;2022-12-19T13:10:04;27.57;;;15.30;;
13566;SDS011;6855;48.112;11.298;2022-12-19T13:12:32;29.37;;;15.13;;
13566;SDS011;6855;48.112;11.298;2022-12-19T13:15:26;32.77;;;18.40;;
13566;SDS011;6855;48.112;11.298;2022-12-19T13:17:59;45.40;;;20.60;;
13566;SDS011;6855;48.112;11.298;2022-12-19T13:23:23;45.53;;;18.70;;
13566;SDS011;6855;48.112;11.298;2022-12-19T13:25:58;49.17;;;21.87;;
13566;SDS011;6855;48.112;11.298;2022-12-19T13:28:38;41.07;;;19.60;;
13566;SDS011;6855;48.112;11.298;2022-12-19T13:31:15;33.60;;;16.40;;
13566;SDS011;6855;48.112;11.298;2022-12-19T13:34:09;24.87;;;12.60;;
13566;SDS011;6855;48.112;11.298;2022-12-19T13:36:49;30.80;;;12.97;;
13566;SDS011;6855;48.112;11.298;2022-12-19T13:39:22;18.77;;;10.90;;
13566;SDS011;6855;48.112;11.298;2022-12-19T13:41:51;20.60;;;11.60;;
13566;SDS011;6855;48.112;11.298;2022-12-19T13:44:45;22.80;;;11.40;;
13566;SDS011;6855;48.112;11.298;2022-12-19T13:47:13;15.53;;;10.40;;
13566;SDS011;6855;48.112;11.298;2022-12-19T13:49:41;24.30;;;11.03;;
13566;SDS011;6855;48.112;11.298;2022-12-19T13:52:10;22.20;;;12.37;;
13566;SDS011;6855;48.112;11.298;2022-12-19T13:54:44;26.17;;;15.37;;
13566;SDS011;6855;48.112;11.298;2022-12-19T13:57:18;25.50;;;14.63;;
13566;SDS011;6855;48.112;11.298;2022-12-19T13:59:48;27.93;;;14.40;;
13566;SDS011;6855;48.112;11.298;2022-12-19T14:02:16;29.47;;;14.40;;
13566;SDS011;6855;48.112;11.298;2022-12-19T14:04:46;27.70;;;14.83;;
13566;SDS011;6855;48.112;11.298;2022-12-19T14:07:25;27.40;;;12.93;;
13566;SDS011;6855;48.112;11.298;2022-12-19T14:09:53;21.27;;;12.40;;
13566;SDS011;6855;48.112;11.298;2022-12-19T14:12:21;22.87;;;11.60;;
13566;SDS011;6855;48.112;11.298;2022-12-19T14:15:20;20.20;;;10.70;;
13566;SDS011;6855;48.112;11.298;2022-12-19T14:17:48;18.77;;;9.60;;
13566;SDS011;6855;48.112;11.298;2022-12-19T14:20:19;18.50;;;9.90;;
13566;SDS011;6855;48.112;11.298;2022-12-19T14:22:46;25.83;;;11.00;;
13566;SDS011;6855;48.112;11.298;2022-12-19T14:25:14;21.83;;;12.07;;
13566;SDS011;6855;48.112;11.298;2022-12-19T14:27:42;24.83;;;12.10;;
13566;SDS011;6855;48.112;11.298;2022-12-19T14:30:14;27.43;;;14.10;;
13566;SDS011;6855;48.112;11.298;2022-12-19T14:32:44;25.10;;;14.17;;
13566;SDS011;6855;48.112;11.298;2022-12-19T14:35:13;21.40;;;11.80;;
13566;SDS011;6855;48.112;11.298;2022-12-19T14:37:42;28.60;;;13.10;;
13566;SDS011;6855;48.112;11.298;2022-12-19T14:40:17;25.00;;;13.33;;
13566;SDS011;6855;48.112;11.298;2022-12-19T14:42:45;28.80;;;14.43;;
13566;SDS011;6855;48.112;11.298;2022-12-19T14:45:34;24.57;;;12.00;;